createdAt,value
2022-12-24T00:03:10.562Z,79.53
2022-12-24T00:08:09.448Z,79.21
2022-12-24T00:13:08.344Z,80.01
2022-12-24T00:18:07.195Z,80.29
2022-12-24T00:23:07.354Z,80.61
2022-12-24T00:28:06.415Z,80.76
2022-12-24T00:33:05.180Z,80.67
2022-12-24T00:38:04.647Z,81.26
2022-12-24T00:43:08.419Z,81.15
2022-12-24T00:48:07.144Z,80.68
2022-12-24T00:53:05.907Z,80.92
2022-12-24T00:58:06.172Z,80.70
2022-12-24T01:03:05.141Z,79.79
2022-12-24T01:08:03.984Z,79.85
2022-12-24T01:13:03.805Z,79.62
2022-12-24T01:18:03.986Z,79.97
2022-12-24T01:23:02.905Z,79.77
2022-12-24T01:28:01.717Z,79.79
2022-12-24T01:33:00.521Z,79.65
2022-12-24T01:38:00.775Z,79.80
2022-12-24T01:43:17.110Z,79.59
2022-12-24T01:48:31.328Z,79.45
2022-12-24T01:53:33.274Z,80.23
2022-12-24T01:58:33.800Z,81.91
2022-12-24T02:03:32.662Z,82.28
2022-12-24T02:08:41.050Z,83.89
2022-12-24T02:13:40.315Z,84.96
2022-12-24T02:18:47.727Z,91.89
2022-12-24T02:24:10.902Z,91.13
2022-12-24T02:29:28.659Z,92.15
2022-12-24T02:34:34.385Z,91.66
2022-12-24T02:39:41.923Z,92.56
2022-12-24T02:44:46.373Z,94.92
2022-12-24T02:49:48.946Z,94.38
2022-12-24T02:54:47.763Z,92.03
2022-12-24T03:00:16.358Z,90.72
2022-12-24T03:05:26.448Z,89.39
2022-12-24T03:10:32.263Z,88.07
2022-12-24T03:15:33.428Z,86.79
2022-12-24T03:20:39.394Z,85.71
2022-12-24T03:25:42.436Z,84.72
2022-12-24T03:30:42.331Z,83.71
2022-12-24T03:35:42.525Z,82.90
2022-12-24T03:40:41.320Z,82.49
2022-12-24T03:45:40.347Z,82.40
2022-12-24T03:50:39.123Z,82.52
2022-12-24T03:55:39.889Z,82.73
2022-12-24T04:00:38.710Z,82.78
2022-12-24T04:05:37.521Z,83.21
2022-12-24T04:10:36.289Z,83.25
2022-12-24T04:15:36.560Z,82.86
2022-12-24T04:20:35.351Z,82.84
2022-12-24T04:25:34.102Z,82.56
2022-12-24T04:30:33.105Z,82.26
2022-12-24T04:35:33.295Z,82.08
2022-12-24T04:40:34.412Z,81.75
2022-12-24T04:45:33.279Z,82.77
2022-12-24T04:50:33.832Z,82.82
2022-12-24T04:55:32.753Z,83.43
2022-12-24T05:00:31.527Z,83.40
2022-12-24T05:05:31.062Z,82.78
2022-12-24T05:10:32.046Z,82.47
2022-12-24T05:15:33.471Z,82.58
2022-12-24T05:20:52.292Z,83.20
2022-12-24T05:26:09.835Z,83.87
2022-12-24T05:31:16.035Z,84.78
2022-12-24T05:36:15.235Z,84.49
2022-12-24T05:41:15.511Z,84.50
2022-12-24T05:46:16.354Z,84.25
2022-12-24T05:51:18.907Z,85.30
2022-12-24T05:56:21.451Z,85.16
2022-12-24T06:01:21.698Z,84.50
2022-12-24T06:06:22.897Z,84.01
2022-12-24T06:11:24.991Z,87.48
2022-12-24T06:16:25.601Z,85.00
2022-12-24T06:21:24.526Z,83.58
2022-12-24T06:26:26.419Z,82.97
2022-12-24T06:31:25.429Z,82.36
2022-12-24T06:36:26.149Z,81.86
2022-12-24T06:41:28.842Z,81.80
2022-12-24T06:46:28.013Z,81.65
2022-12-24T06:51:27.097Z,81.84
2022-12-24T06:56:27.436Z,82.49
2022-12-24T07:01:26.310Z,82.31
2022-12-24T07:06:27.130Z,82.52
2022-12-24T07:11:27.612Z,82.48
2022-12-24T07:16:29.517Z,82.53
2022-12-24T07:21:28.501Z,82.07
2022-12-24T07:26:28.831Z,82.26
2022-12-24T07:31:29.627Z,82.28
2022-12-24T07:36:29.324Z,81.74
2022-12-24T07:41:37.930Z,81.45
2022-12-24T07:46:40.519Z,81.02
2022-12-24T07:51:39.669Z,81.79
2022-12-24T07:56:39.798Z,81.29
2022-12-24T08:01:38.748Z,80.13
2022-12-24T08:06:37.694Z,80.21
2022-12-24T08:11:36.466Z,80.62
2022-12-24T08:16:36.738Z,80.52
2022-12-24T08:21:35.583Z,80.67
2022-12-24T08:26:34.518Z,81.06
2022-12-24T08:31:36.640Z,80.34
2022-12-24T08:36:40.011Z,80.73
2022-12-24T08:41:38.957Z,81.46
2022-12-24T08:46:38.641Z,81.49
2022-12-24T08:51:38.869Z,83.08
2022-12-24T08:56:38.066Z,84.15
2022-12-24T09:01:37.344Z,83.72
2022-12-24T09:06:36.736Z,85.39
2022-12-24T09:11:37.217Z,83.63
2022-12-24T09:16:36.049Z,81.59
2022-12-24T09:21:34.861Z,82.90
2022-12-24T09:26:33.631Z,82.06
2022-12-24T09:31:34.211Z,82.04
2022-12-24T09:36:33.159Z,80.39
2022-12-24T09:41:42.980Z,79.24
2022-12-24T09:46:48.859Z,77.96
2022-12-24T09:51:52.445Z,78.30
2022-12-24T09:56:51.497Z,81.08
2022-12-24T10:01:53.600Z,79.89
2022-12-24T10:07:02.740Z,80.77
2022-12-24T10:12:09.732Z,81.45
2022-12-24T10:17:26.404Z,81.69
2022-12-24T10:22:34.493Z,82.75
2022-12-24T10:27:38.282Z,82.00
2022-12-24T10:32:39.432Z,81.93
2022-12-24T10:37:38.324Z,80.40
2022-12-24T10:42:50.363Z,80.40
2022-12-24T10:47:58.142Z,81.68
2022-12-24T10:53:05.841Z,80.88
2022-12-24T10:58:08.799Z,80.19
2022-12-24T11:03:25.437Z,80.72
2022-12-24T11:08:26.240Z,80.49
2022-12-24T11:13:38.839Z,81.38
2022-12-24T11:18:52.105Z,82.51
2022-12-24T11:23:54.650Z,81.41
2022-12-24T11:29:17.217Z,80.58
2022-12-24T11:34:26.663Z,80.53
2022-12-24T11:39:27.158Z,79.98
2022-12-24T11:44:28.354Z,79.69
2022-12-24T11:49:33.113Z,79.11
2022-12-24T11:54:40.424Z,79.60
2022-12-24T11:59:44.302Z,80.19
2022-12-24T12:04:47.933Z,81.18
2022-12-24T12:09:51.323Z,81.81
2022-12-24T12:14:53.442Z,82.37
2022-12-24T12:20:01.273Z,82.63
2022-12-24T12:25:02.296Z,81.71
2022-12-24T12:30:04.304Z,82.24
2022-12-24T12:35:15.520Z,83.23
2022-12-24T12:40:16.467Z,84.25
2022-12-24T12:45:35.144Z,83.40
2022-12-24T12:50:44.244Z,83.41
2022-12-24T12:55:52.674Z,84.55
2022-12-24T13:00:56.095Z,84.94
2022-12-24T13:06:30.957Z,86.67
2022-12-24T13:11:44.275Z,86.94
2022-12-24T13:17:15.252Z,87.29
2022-12-24T13:22:17.443Z,87.53
2022-12-24T13:27:20.578Z,86.69
2022-12-24T13:32:49.382Z,86.79
2022-12-24T13:37:51.321Z,87.73
2022-12-24T13:43:12.525Z,87.45
2022-12-24T13:48:40.467Z,87.81
2022-12-24T13:53:43.269Z,87.06
2022-12-24T13:58:45.730Z,88.72
2022-12-24T14:03:47.892Z,87.26
2022-12-24T14:08:49.184Z,87.74
2022-12-24T14:14:27.377Z,87.20
2022-12-24T14:19:37.060Z,87.64
2022-12-24T14:24:38.973Z,87.08
2022-12-24T14:29:47.908Z,86.66
2022-12-24T14:34:46.738Z,85.49
2022-12-24T14:39:57.003Z,85.13
2022-12-24T14:45:08.648Z,84.51
2022-12-24T14:50:35.793Z,83.92
2022-12-24T14:55:41.737Z,84.46
2022-12-24T15:00:44.842Z,83.75
2022-12-24T15:05:44.343Z,83.83
2022-12-24T15:10:45.534Z,83.84
2022-12-24T15:15:52.270Z,83.54
2022-12-24T15:21:04.124Z,82.76
2022-12-24T15:26:27.933Z,82.50
2022-12-24T15:31:29.968Z,83.09
2022-12-24T15:36:32.779Z,83.07
2022-12-24T15:41:38.412Z,82.60
2022-12-24T15:46:40.009Z,83.36
2022-12-24T15:51:46.239Z,82.96
2022-12-24T15:56:49.204Z,82.53
2022-12-24T16:01:50.425Z,82.71
2022-12-24T16:06:54.572Z,83.37
2022-12-24T16:11:59.475Z,85.14
2022-12-24T16:17:03.066Z,84.93
2022-12-24T16:22:24.230Z,86.12
2022-12-24T16:27:23.211Z,85.43
2022-12-24T16:32:32.070Z,86.46
2022-12-24T16:37:31.072Z,87.67
2022-12-24T16:42:47.169Z,100.00
2022-12-24T16:47:47.475Z,88.45
2022-12-24T16:52:46.443Z,89.32
2022-12-24T16:57:45.653Z,89.68
2022-12-24T17:02:44.561Z,89.10
2022-12-24T17:07:46.201Z,88.24
2022-12-24T17:12:45.212Z,88.46
2022-12-24T17:17:44.012Z,88.85
2022-12-24T17:22:42.929Z,90.55
2022-12-24T17:27:44.595Z,89.94
2022-12-24T17:32:43.584Z,90.78
2022-12-24T17:37:46.615Z,90.51
2022-12-24T17:42:46.868Z,89.79
2022-12-24T17:47:45.934Z,89.35
2022-12-24T17:52:44.749Z,90.69
2022-12-24T17:57:43.559Z,90.17
2022-12-24T18:02:44.017Z,90.60
2022-12-24T18:07:42.942Z,90.51
2022-12-24T18:12:41.795Z,92.00
2022-12-24T18:17:40.814Z,92.35
2022-12-24T18:22:40.973Z,94.50
2022-12-24T18:27:39.881Z,94.47
2022-12-24T18:32:39.390Z,93.12
2022-12-24T18:37:38.544Z,94.08
2022-12-24T18:42:41.936Z,94.28
2022-12-24T18:47:40.651Z,94.12
2022-12-24T18:52:39.373Z,93.25
2022-12-24T18:57:39.562Z,94.20
2022-12-24T19:02:38.545Z,95.89
2022-12-24T19:07:37.492Z,96.64
2022-12-24T19:12:36.227Z,95.42
2022-12-24T19:17:36.359Z,95.43
2022-12-24T19:22:35.169Z,95.48
2022-12-24T19:27:33.972Z,93.60
2022-12-24T19:32:38.570Z,93.73
2022-12-24T19:37:38.739Z,92.78
2022-12-24T19:42:40.892Z,92.97
2022-12-24T19:47:39.800Z,96.07
2022-12-24T19:52:40.041Z,95.88
2022-12-24T19:57:39.661Z,96.77
2022-12-24T20:02:38.622Z,98.30
2022-12-24T20:07:37.476Z,96.90
2022-12-24T20:12:37.994Z,96.13
2022-12-24T20:17:36.747Z,95.89
2022-12-24T20:22:35.625Z,96.92
2022-12-24T20:27:34.333Z,98.93
2022-12-24T20:32:34.534Z,99.83
2022-12-24T20:37:38.080Z,98.63
2022-12-24T20:42:39.449Z,99.40
2022-12-24T20:47:40.121Z,98.58
2022-12-24T20:52:38.880Z,98.96
2022-12-24T20:57:37.719Z,97.97
2022-12-24T21:02:36.589Z,98.32
2022-12-24T21:07:39.073Z,96.84
2022-12-24T21:12:50.429Z,96.76
2022-12-24T21:17:50.403Z,95.80
2022-12-24T21:22:58.868Z,96.13
2022-12-24T21:27:59.613Z,93.55
2022-12-24T21:32:59.492Z,93.73
2022-12-24T21:37:59.706Z,95.41
2022-12-24T21:42:58.587Z,97.06
2022-12-24T21:48:20.348Z,98.67
2022-12-24T21:53:38.012Z,97.11
2022-12-24T21:58:37.908Z,95.99
2022-12-24T22:03:37.164Z,97.17
2022-12-24T22:09:00.622Z,97.45
2022-12-24T22:13:59.546Z,97.98
2022-12-24T22:19:03.804Z,97.31
2022-12-24T22:24:07.157Z,96.11
2022-12-24T22:29:06.214Z,95.71
2022-12-24T22:34:06.091Z,94.77
2022-12-24T22:39:06.552Z,93.77
2022-12-24T22:44:05.757Z,94.69
2022-12-24T22:49:05.397Z,94.49
2022-12-24T22:54:04.195Z,93.72
2022-12-24T22:59:05.918Z,92.28
2022-12-24T23:04:06.267Z,93.76
2022-12-24T23:09:07.144Z,94.23
2022-12-24T23:14:24.907Z,94.10
2022-12-24T23:19:23.750Z,94.35
2022-12-24T23:24:22.853Z,92.47
2022-12-24T23:29:23.273Z,93.59
2022-12-24T23:34:22.077Z,92.85
2022-12-24T23:39:21.040Z,94.58
2022-12-24T23:44:20.149Z,93.86
2022-12-24T23:49:20.408Z,95.74
2022-12-24T23:54:21.872Z,94.31
2022-12-24T23:59:24.897Z,95.02
